createdAt,value
2023-05-03T00:01:53.565Z,101493.61
2023-05-03T00:04:24.561Z,101498.17
2023-05-03T00:06:55.831Z,101503.08
2023-05-03T00:09:26.516Z,101498.00
2023-05-03T00:11:57.303Z,101501.14
2023-05-03T00:14:28.148Z,101495.95
2023-05-03T00:16:58.943Z,101491.05
2023-05-03T00:19:33.785Z,101491.35
2023-05-03T00:22:04.788Z,101491.27
2023-05-03T00:24:35.663Z,101492.63
2023-05-03T00:27:06.777Z,101496.30
2023-05-03T00:29:37.483Z,101496.23
2023-05-03T00:32:10.822Z,101499.89
2023-05-03T00:34:41.607Z,101499.65
2023-05-03T00:37:12.423Z,101500.34
2023-05-03T00:39:43.132Z,101495.67
2023-05-03T00:42:13.989Z,101501.02
2023-05-03T00:44:44.861Z,101506.14
2023-05-03T00:47:16.436Z,101506.16
2023-05-03T00:49:47.493Z,101509.33
2023-05-03T00:52:18.245Z,101510.92
2023-05-03T00:54:49.098Z,101510.08
2023-05-03T00:57:21.656Z,101513.77
2023-05-03T00:59:52.573Z,101514.94
2023-05-03T01:02:24.983Z,101516.34
2023-05-03T01:04:56.483Z,101512.52
2023-05-03T01:07:29.427Z,101505.23
2023-05-03T01:10:02.389Z,101507.95
2023-05-03T01:12:36.232Z,101513.44
2023-05-03T01:15:09.156Z,101512.91
2023-05-03T01:17:42.281Z,101515.34
2023-05-03T01:20:14.285Z,101513.60
2023-05-03T01:22:48.489Z,101515.22
2023-05-03T01:25:19.117Z,101510.19
2023-05-03T01:27:49.994Z,101510.17
2023-05-03T01:30:20.748Z,101518.59
2023-05-03T01:32:54.311Z,101514.61
2023-05-03T01:35:27.928Z,101512.52
2023-05-03T01:37:59.227Z,101511.05
2023-05-03T01:40:30.017Z,101511.55
2023-05-03T01:43:00.870Z,101509.02
2023-05-03T01:45:31.707Z,101512.13
2023-05-03T01:48:02.635Z,101514.10
2023-05-03T01:50:33.409Z,101513.20
2023-05-03T01:53:04.171Z,101513.71
2023-05-03T01:55:34.943Z,101510.34
2023-05-03T01:58:06.373Z,101504.86
2023-05-03T02:00:37.182Z,101505.27
2023-05-03T02:03:08.157Z,101504.10
2023-05-03T02:05:38.987Z,101506.79
2023-05-03T02:08:10.067Z,101502.39
2023-05-03T02:10:40.857Z,101504.10
2023-05-03T02:13:11.664Z,101506.20
2023-05-03T02:15:42.338Z,101504.98
2023-05-03T02:18:13.122Z,101501.46
2023-05-03T02:20:46.212Z,101499.11
2023-05-03T02:23:17.113Z,101498.27
2023-05-03T02:25:47.888Z,101500.14
2023-05-03T02:28:18.797Z,101495.52
2023-05-03T02:30:49.636Z,101496.41
2023-05-03T02:33:20.710Z,101499.52
2023-05-03T02:35:51.752Z,101499.15
2023-05-03T02:38:22.634Z,101502.51
2023-05-03T02:40:53.407Z,101499.13
2023-05-03T02:43:24.330Z,101503.90
2023-05-03T02:45:55.191Z,101499.81
2023-05-03T02:48:25.977Z,101500.77
2023-05-03T02:50:56.682Z,101502.21
2023-05-03T02:53:27.491Z,101504.94
2023-05-03T02:55:58.253Z,101507.40
2023-05-03T02:58:29.140Z,101507.56
2023-05-03T03:01:00.116Z,101508.80
2023-05-03T03:03:31.155Z,101508.95
2023-05-03T03:06:02.266Z,101510.35
2023-05-03T03:08:33.126Z,101508.70
2023-05-03T03:11:03.938Z,101506.71
2023-05-03T03:13:39.707Z,101507.45
2023-05-03T03:16:10.883Z,101509.10
2023-05-03T03:18:41.796Z,101511.36
2023-05-03T03:21:12.575Z,101507.63
2023-05-03T03:23:43.236Z,101509.47
2023-05-03T03:26:13.955Z,101507.63
2023-05-03T03:28:44.718Z,101505.12
2023-05-03T03:31:15.654Z,101502.03
2023-05-03T03:33:46.405Z,101503.01
2023-05-03T03:36:17.168Z,101500.59
2023-05-03T03:38:47.991Z,101505.54
2023-05-03T03:41:18.802Z,101505.11
2023-05-03T03:43:49.546Z,101506.88
2023-05-03T03:46:20.421Z,101508.10
2023-05-03T03:48:51.307Z,101508.98
2023-05-03T03:51:22.149Z,101509.77
2023-05-03T03:53:52.992Z,101512.76
2023-05-03T03:56:23.910Z,101517.17
2023-05-03T03:58:54.817Z,101517.38
2023-05-03T04:01:26.172Z,101515.77
2023-05-03T04:03:57.451Z,101521.91
2023-05-03T04:06:29.136Z,101523.95
2023-05-03T04:08:59.988Z,101523.73
2023-05-03T04:11:30.836Z,101527.07
2023-05-03T04:14:01.727Z,101519.27
2023-05-03T04:16:32.686Z,101514.90
2023-05-03T04:19:03.426Z,101512.53
2023-05-03T04:21:34.298Z,101516.59
2023-05-03T04:24:06.032Z,101521.36
2023-05-03T04:26:36.712Z,101524.49
2023-05-03T04:29:07.533Z,101529.70
2023-05-03T04:31:38.503Z,101538.45
2023-05-03T04:34:10.790Z,101547.10
2023-05-03T04:36:42.101Z,101555.13
2023-05-03T04:39:13.100Z,101554.81
2023-05-03T04:41:44.032Z,101555.52
2023-05-03T04:44:15.255Z,101555.94
2023-05-03T04:46:47.192Z,101557.87
2023-05-03T04:49:19.170Z,101556.23
2023-05-03T04:51:49.983Z,101557.12
2023-05-03T04:54:20.785Z,101560.94
2023-05-03T04:56:51.714Z,101570.73
2023-05-03T04:59:22.785Z,101566.69
2023-05-03T05:01:53.656Z,101561.45
2023-05-03T05:04:24.507Z,101562.86
2023-05-03T05:06:55.449Z,101563.64
2023-05-03T05:09:27.831Z,101571.23
2023-05-03T05:11:58.662Z,101573.97
2023-05-03T05:14:30.982Z,101573.82
2023-05-03T05:17:02.019Z,101575.85
2023-05-03T05:19:32.949Z,101575.45
2023-05-03T05:22:03.881Z,101576.98
2023-05-03T05:24:34.702Z,101580.25
2023-05-03T05:27:06.862Z,101575.21
2023-05-03T05:29:37.572Z,101573.72
2023-05-03T05:32:08.404Z,101575.73
2023-05-03T05:34:44.972Z,101579.95
2023-05-03T05:37:16.767Z,101578.60
2023-05-03T05:39:47.874Z,101574.86
2023-05-03T05:42:18.777Z,101572.05
2023-05-03T05:44:49.627Z,101572.09
2023-05-03T05:47:22.001Z,101565.27
2023-05-03T05:49:52.994Z,101560.56
2023-05-03T05:52:23.787Z,101559.65
2023-05-03T05:54:54.583Z,101551.80
2023-05-03T05:57:25.411Z,101548.94
2023-05-03T05:59:56.910Z,101548.14
2023-05-03T06:02:28.251Z,101551.29
2023-05-03T06:04:59.498Z,101552.38
2023-05-03T06:07:30.309Z,101552.80
2023-05-03T06:10:01.438Z,101552.52
2023-05-03T06:12:32.576Z,101551.54
2023-05-03T06:15:03.513Z,101551.45
2023-05-03T06:17:34.535Z,101553.08
2023-05-03T06:20:05.985Z,101556.27
2023-05-03T06:22:36.958Z,101557.31
2023-05-03T06:25:08.901Z,101558.98
2023-05-03T06:27:39.812Z,101563.00
2023-05-03T06:30:11.761Z,101565.23
2023-05-03T06:32:42.702Z,101566.38
2023-05-03T06:35:13.882Z,101564.02
2023-05-03T06:37:45.020Z,101560.31
2023-05-03T06:40:16.148Z,101558.91
2023-05-03T06:42:46.906Z,101561.42
2023-05-03T06:45:18.650Z,101562.07
2023-05-03T06:47:50.501Z,101570.33
2023-05-03T06:50:22.565Z,101567.94
2023-05-03T06:52:53.335Z,101566.31
2023-05-03T06:55:24.132Z,101563.80
2023-05-03T06:57:55.112Z,101567.40
2023-05-03T07:00:26.276Z,101568.55
2023-05-03T07:02:57.276Z,101572.42
2023-05-03T07:05:28.371Z,101575.64
2023-05-03T07:07:59.074Z,101575.48
2023-05-03T07:10:31.520Z,101574.55
2023-05-03T07:13:02.713Z,101569.85
2023-05-03T07:15:33.594Z,101566.41
2023-05-03T07:18:04.431Z,101565.96
2023-05-03T07:20:35.275Z,101568.37
2023-05-03T07:23:06.751Z,101568.96
2023-05-03T07:25:39.441Z,101567.60
2023-05-03T07:28:10.236Z,101567.17
2023-05-03T07:30:41.129Z,101568.82
2023-05-03T07:33:12.192Z,101572.83
2023-05-03T07:35:43.189Z,101577.33
2023-05-03T07:38:14.065Z,101573.11
2023-05-03T07:40:44.938Z,101568.67
2023-05-03T07:43:16.814Z,101570.02
2023-05-03T07:45:47.868Z,101573.82
2023-05-03T07:48:18.653Z,101575.75
2023-05-03T07:50:49.448Z,101575.28
2023-05-03T07:53:20.402Z,101577.98
2023-05-03T07:55:54.546Z,101576.38
2023-05-03T07:58:38.854Z,101576.80
2023-05-03T08:01:11.259Z,101577.95
2023-05-03T08:03:43.761Z,101584.04
2023-05-03T08:06:15.010Z,101586.38
2023-05-03T08:08:45.821Z,101590.14
2023-05-03T08:11:16.748Z,101598.30
2023-05-03T08:13:47.470Z,101606.08
2023-05-03T08:16:18.290Z,101612.45
2023-05-03T08:18:49.131Z,101613.59
2023-05-03T08:21:20.297Z,101604.54
2023-05-03T08:23:51.146Z,101607.96
2023-05-03T08:26:22.339Z,101608.45
2023-05-03T08:28:53.214Z,101598.29
2023-05-03T08:31:24.024Z,101590.11
2023-05-03T08:33:54.762Z,101578.98
2023-05-03T08:36:25.534Z,101575.84
2023-05-03T08:38:56.232Z,101577.39
2023-05-03T08:41:30.438Z,101573.62
2023-05-03T08:44:02.251Z,101569.30
2023-05-03T08:46:37.381Z,101573.59
2023-05-03T08:49:09.551Z,101578.75
2023-05-03T08:51:40.348Z,101576.71
2023-05-03T08:54:11.313Z,101568.79
2023-05-03T08:56:42.784Z,101566.82
2023-05-03T08:59:13.760Z,101558.89
2023-05-03T09:01:44.653Z,101560.70
2023-05-03T09:04:15.682Z,101554.54
2023-05-03T09:06:46.840Z,101553.53
2023-05-03T09:09:17.950Z,101555.06
2023-05-03T09:11:48.830Z,101549.73
2023-05-03T09:14:21.461Z,101553.36
2023-05-03T09:16:52.337Z,101557.13
2023-05-03T09:19:24.567Z,101556.68
2023-05-03T09:21:55.506Z,101554.46
2023-05-03T09:24:26.280Z,101544.55
2023-05-03T09:26:58.746Z,101545.41
2023-05-03T09:29:30.458Z,101542.15
2023-05-03T09:32:02.130Z,101537.36
2023-05-03T09:34:33.114Z,101530.99
2023-05-03T09:37:04.032Z,101523.47
2023-05-03T09:39:36.971Z,101518.45
2023-05-03T09:42:17.509Z,101520.69
2023-05-03T09:44:51.751Z,101515.92
2023-05-03T09:47:25.631Z,101516.73
2023-05-03T09:49:56.607Z,101518.58
2023-05-03T09:52:27.610Z,101524.10
2023-05-03T09:54:58.709Z,101528.48
2023-05-03T09:57:29.527Z,101531.85
2023-05-03T10:00:00.216Z,101526.69
2023-05-03T10:02:31.944Z,101522.48
2023-05-03T10:05:02.878Z,101520.38
2023-05-03T10:07:33.766Z,101517.27
2023-05-03T10:10:05.174Z,101512.09
2023-05-03T10:12:36.242Z,101506.38
2023-05-03T10:15:07.503Z,101503.30
2023-05-03T10:20:14.419Z,101497.82
2023-05-03T10:23:02.796Z,101501.53
2023-05-03T10:25:33.645Z,101499.58
2023-05-03T10:28:04.697Z,101497.08
2023-05-03T10:30:36.129Z,101495.05
2023-05-03T10:33:26.456Z,101497.64
2023-05-03T10:35:57.566Z,101492.07
2023-05-03T10:38:28.766Z,101488.13
2023-05-03T10:41:00.280Z,101488.61
2023-05-03T10:43:47.116Z,101490.90
2023-05-03T10:46:34.493Z,101493.78
2023-05-03T10:49:21.824Z,101490.88
2023-05-03T10:51:52.818Z,101483.14
2023-05-03T10:54:24.326Z,101489.17
2023-05-03T10:56:57.361Z,101483.21
2023-05-03T10:59:28.112Z,101485.59
2023-05-03T11:01:59.050Z,101481.52
2023-05-03T11:04:35.995Z,101477.33
2023-05-03T11:07:06.789Z,101472.80
2023-05-03T11:09:37.566Z,101472.27
2023-05-03T11:12:09.941Z,101469.28
2023-05-03T11:14:41.115Z,101467.33
2023-05-03T11:17:11.925Z,101466.16
2023-05-03T11:19:42.701Z,101458.15
2023-05-03T11:22:13.856Z,101454.09
2023-05-03T11:24:44.740Z,101450.20
2023-05-03T11:27:16.430Z,101453.58
2023-05-03T11:29:51.220Z,101451.33
2023-05-03T11:32:22.197Z,101454.69
2023-05-03T11:34:53.205Z,101451.57
2023-05-03T11:37:24.056Z,101450.62
2023-05-03T11:39:54.883Z,101442.33
2023-05-03T11:42:27.067Z,101438.47
2023-05-03T11:44:57.944Z,101432.45
2023-05-03T11:47:29.018Z,101426.15
2023-05-03T11:49:59.992Z,101425.00
2023-05-03T11:52:31.188Z,101418.89
2023-05-03T11:55:02.976Z,101417.70
2023-05-03T11:57:34.365Z,101419.56
2023-05-03T12:00:18.456Z,101422.63
2023-05-03T12:02:50.451Z,101416.16
2023-05-03T12:05:22.802Z,101413.94
2023-05-03T12:07:54.900Z,101408.48
2023-05-03T12:10:27.135Z,101411.98
2023-05-03T12:13:00.504Z,101411.73
2023-05-03T12:15:33.783Z,101411.64
2023-05-03T12:18:05.617Z,101409.95
2023-05-03T12:23:11.528Z,101398.77
2023-05-03T12:25:44.647Z,101394.04
2023-05-03T12:28:20.372Z,101395.61
2023-05-03T12:30:53.508Z,101395.72
2023-05-03T12:33:27.240Z,101388.73
2023-05-03T12:35:59.859Z,101386.17
2023-05-03T12:38:31.272Z,101373.22
2023-05-03T12:41:02.393Z,101365.91
2023-05-03T12:43:33.400Z,101352.38
2023-05-03T12:48:38.176Z,101338.54
2023-05-03T12:51:19.156Z,101342.80
2023-05-03T12:53:55.227Z,101334.22
2023-05-03T12:56:31.897Z,101335.67
2023-05-03T12:59:34.452Z,101340.48
2023-05-03T13:07:03.146Z,101334.01
2023-05-03T13:10:12.350Z,101332.86
2023-05-03T13:12:25.740Z,101317.88
2023-05-03T13:14:56.473Z,101317.23
2023-05-03T13:17:27.266Z,101310.16
2023-05-03T13:19:58.340Z,101310.91
2023-05-03T13:22:29.235Z,101309.29
2023-05-03T13:25:00.266Z,101313.58
2023-05-03T13:27:31.314Z,101312.50
2023-05-03T13:30:05.174Z,101311.61
2023-05-03T13:32:35.944Z,101308.86
2023-05-03T13:35:07.987Z,101309.70
2023-05-03T13:37:38.786Z,101311.23
2023-05-03T13:40:11.208Z,101305.84
2023-05-03T13:42:42.014Z,101304.40
2023-05-03T13:45:13.742Z,101300.30
2023-05-03T13:50:18.977Z,101296.67
2023-05-03T13:52:49.714Z,101288.39
2023-05-03T13:55:20.621Z,101287.10
2023-05-03T13:57:51.983Z,101279.20
2023-05-03T14:00:23.133Z,101270.15
2023-05-03T14:02:53.919Z,101274.77
2023-05-03T14:05:24.934Z,101277.69
2023-05-03T14:07:55.789Z,101273.04
2023-05-03T14:10:26.570Z,101277.67
2023-05-03T14:12:58.244Z,101284.46
2023-05-03T14:15:29.167Z,101284.56
2023-05-03T14:18:02.310Z,101280.30
2023-05-03T14:20:35.834Z,101274.48
2023-05-03T14:23:06.678Z,101273.58
2023-05-03T14:25:37.805Z,101280.99
2023-05-03T14:28:08.605Z,101281.01
2023-05-03T14:30:39.388Z,101280.92
2023-05-03T14:33:12.180Z,101278.26
2023-05-03T14:35:44.090Z,101279.45
2023-05-03T14:38:15.753Z,101275.73
2023-05-03T14:40:46.575Z,101264.45
2023-05-03T14:43:17.306Z,101259.50
2023-05-03T14:45:48.278Z,101254.67
2023-05-03T14:48:19.013Z,101248.29
2023-05-03T14:50:53.025Z,101246.16
2023-05-03T14:53:23.950Z,101243.52
2023-05-03T14:55:54.748Z,101239.73
2023-05-03T14:58:25.572Z,101244.41
2023-05-03T15:00:56.296Z,101250.80
2023-05-03T15:03:27.613Z,101253.98
2023-05-03T15:05:58.390Z,101250.88
2023-05-03T15:08:29.225Z,101254.68
2023-05-03T15:11:00.042Z,101253.55
2023-05-03T15:13:30.940Z,101255.83
2023-05-03T15:16:01.915Z,101251.52
2023-05-03T15:18:32.739Z,101253.02
2023-05-03T15:21:03.664Z,101250.39
2023-05-03T15:23:34.348Z,101258.55
2023-05-03T15:26:05.289Z,101252.70
2023-05-03T15:28:36.104Z,101253.02
2023-05-03T15:31:06.965Z,101253.06
2023-05-03T15:33:41.184Z,101245.95
2023-05-03T15:36:12.588Z,101235.23
2023-05-03T15:38:43.552Z,101236.16
2023-05-03T15:41:14.461Z,101230.91
2023-05-03T15:43:45.322Z,101227.83
2023-05-03T15:46:16.370Z,101228.83
2023-05-03T15:48:47.385Z,101227.98
2023-05-03T15:51:18.300Z,101228.65
2023-05-03T15:53:49.187Z,101226.45
2023-05-03T15:56:20.647Z,101223.02
2023-05-03T15:58:51.494Z,101216.95
2023-05-03T16:01:22.367Z,101202.80
2023-05-03T16:03:53.297Z,101194.61
2023-05-03T16:06:24.005Z,101189.35
2023-05-03T16:08:54.845Z,101197.70
2023-05-03T16:11:25.643Z,101205.95
2023-05-03T16:13:58.319Z,101212.42
2023-05-03T16:16:36.337Z,101212.90
2023-05-03T16:19:09.922Z,101214.02
2023-05-03T16:21:40.861Z,101212.02
2023-05-03T16:24:12.115Z,101211.61
2023-05-03T16:26:43.580Z,101212.48
2023-05-03T16:29:14.533Z,101204.84
2023-05-03T16:31:47.085Z,101198.42
2023-05-03T16:34:21.394Z,101196.63
2023-05-03T16:36:52.308Z,101196.47
2023-05-03T16:39:22.989Z,101199.04
2023-05-03T16:41:53.740Z,101198.59
2023-05-03T16:44:25.266Z,101191.73
2023-05-03T16:46:56.020Z,101186.92
2023-05-03T16:49:29.064Z,101185.88
2023-05-03T16:52:07.178Z,101190.41
2023-05-03T16:55:17.288Z,101191.47
2023-05-03T16:58:09.332Z,101191.10
2023-05-03T17:04:17.023Z,101195.26
2023-05-03T17:04:19.089Z,101189.92
2023-05-03T17:06:47.738Z,101203.20
2023-05-03T17:09:30.559Z,101213.26
2023-05-03T17:12:03.548Z,101213.54
2023-05-03T17:14:34.641Z,101217.02
2023-05-03T17:17:13.642Z,101219.37
2023-05-03T17:19:46.960Z,101223.30
2023-05-03T17:22:19.745Z,101215.45
2023-05-03T17:24:51.036Z,101222.96
2023-05-03T17:27:24.428Z,101220.73
2023-05-03T17:29:58.076Z,101218.98
2023-05-03T17:32:29.080Z,101221.05
2023-05-03T17:35:00.040Z,101224.96
2023-05-03T17:37:32.151Z,101230.88
2023-05-03T17:40:03.290Z,101238.23
2023-05-03T17:42:34.593Z,101244.23
2023-05-03T17:45:08.547Z,101248.70
2023-05-03T17:47:42.173Z,101254.35
2023-05-03T17:50:13.701Z,101258.46
2023-05-03T17:52:47.301Z,101261.97
2023-05-03T17:55:25.530Z,101266.48
2023-05-03T17:57:57.976Z,101274.46
2023-05-03T18:00:28.815Z,101287.67
2023-05-03T18:02:59.676Z,101288.39
2023-05-03T18:05:38.206Z,101297.95
2023-05-03T18:08:09.353Z,101301.56
2023-05-03T18:10:41.903Z,101308.97
2023-05-03T18:13:18.662Z,101309.40
2023-05-03T18:15:52.723Z,101315.59
2023-05-03T18:18:23.976Z,101325.17
2023-05-03T18:21:02.502Z,101338.52
2023-05-03T18:23:34.195Z,101351.55
2023-05-03T18:26:05.526Z,101357.66
2023-05-03T18:28:37.471Z,101363.64
2023-05-03T18:31:12.718Z,101375.96
2023-05-03T18:33:44.124Z,101389.48
2023-05-03T18:36:15.851Z,101399.95
2023-05-03T18:38:47.357Z,101396.59
2023-05-03T18:41:18.108Z,101390.37
2023-05-03T18:43:49.640Z,101395.66
2023-05-03T18:46:20.739Z,101409.00
2023-05-03T18:48:51.642Z,101404.91
2023-05-03T18:51:25.306Z,101409.69
2023-05-03T18:54:20.529Z,101418.52
2023-05-03T18:56:53.296Z,101428.45
2023-05-03T18:59:24.247Z,101439.23
2023-05-03T19:01:57.658Z,101446.23
2023-05-03T19:04:31.513Z,101449.97
2023-05-03T19:07:02.476Z,101445.20
2023-05-03T19:09:33.534Z,101434.02
2023-05-03T19:12:06.603Z,101438.29
2023-05-03T19:14:38.598Z,101431.85
2023-05-03T19:17:09.787Z,101430.12
2023-05-03T19:19:40.781Z,101435.29
2023-05-03T19:22:13.551Z,101448.88
2023-05-03T19:24:44.395Z,101459.91
2023-05-03T19:27:17.206Z,101448.11
2023-05-03T19:29:48.541Z,101449.34
2023-05-03T19:32:19.450Z,101466.49
2023-05-03T19:34:50.283Z,101467.30
2023-05-03T19:37:21.139Z,101472.39
2023-05-03T19:39:52.263Z,101476.38
2023-05-03T19:42:23.120Z,101475.72
2023-05-03T19:44:54.249Z,101465.98
2023-05-03T19:47:26.341Z,101466.45
2023-05-03T19:49:57.343Z,101467.05
2023-05-03T19:52:28.431Z,101461.77
2023-05-03T19:55:02.505Z,101468.64
2023-05-03T19:57:34.524Z,101474.64
2023-05-03T20:00:07.415Z,101485.15
2023-05-03T20:02:38.470Z,101481.52
2023-05-03T20:05:09.663Z,101480.45
2023-05-03T20:07:40.504Z,101490.18
2023-05-03T20:10:11.775Z,101499.43
2023-05-03T20:12:43.026Z,101503.52
2023-05-03T20:15:13.992Z,101507.48
2023-05-03T20:17:44.929Z,101512.27
2023-05-03T20:20:16.667Z,101520.45
2023-05-03T20:22:48.956Z,101514.80
2023-05-03T20:25:19.715Z,101521.22
2023-05-03T20:27:50.545Z,101519.33
2023-05-03T20:30:21.442Z,101487.73
2023-05-03T20:32:52.421Z,101463.77
2023-05-03T20:35:23.257Z,101468.77
2023-05-03T20:37:54.207Z,101459.55
2023-05-03T20:40:25.229Z,101451.70
2023-05-03T20:42:56.141Z,101447.64
2023-05-03T20:45:27.531Z,101453.27
2023-05-03T20:47:58.384Z,101453.77
2023-05-03T20:50:29.181Z,101453.20
2023-05-03T20:53:00.057Z,101440.81
2023-05-03T20:55:31.180Z,101442.08
2023-05-03T20:58:02.004Z,101426.77
2023-05-03T21:00:33.037Z,101425.20
2023-05-03T21:03:03.880Z,101421.77
2023-05-03T21:05:34.917Z,101428.43
2023-05-03T21:08:05.764Z,101426.25
2023-05-03T21:10:36.488Z,101426.04
2023-05-03T21:13:07.281Z,101426.37
2023-05-03T21:15:38.200Z,101457.65
2023-05-03T21:18:09.241Z,101460.28
2023-05-03T21:20:40.120Z,101461.03
2023-05-03T21:23:10.867Z,101444.85
2023-05-03T21:25:41.739Z,101410.48
2023-05-03T21:28:12.551Z,101412.27
2023-05-03T21:30:44.109Z,101423.42
2023-05-03T21:33:15.001Z,101441.67
2023-05-03T21:35:45.929Z,101459.10
2023-05-03T21:38:17.960Z,101469.20
2023-05-03T21:40:48.679Z,101469.84
2023-05-03T21:43:19.969Z,101466.50
2023-05-03T21:45:50.706Z,101459.05
2023-05-03T21:48:22.672Z,101460.47
2023-05-03T21:50:53.526Z,101459.25
2023-05-03T21:53:24.326Z,101452.77
2023-05-03T21:55:55.162Z,101445.23
2023-05-03T21:58:26.109Z,101427.31
2023-05-03T22:00:57.551Z,101422.80
2023-05-03T22:03:28.462Z,101416.50
2023-05-03T22:05:59.326Z,101418.80
2023-05-03T22:08:30.092Z,101416.46
2023-05-03T22:11:01.860Z,101411.04
2023-05-03T22:13:32.703Z,101403.23
2023-05-03T22:16:06.399Z,101403.02
2023-05-03T22:18:37.789Z,101395.30
2023-05-03T22:21:08.590Z,101390.17
2023-05-03T22:23:39.425Z,101396.67
2023-05-03T22:26:10.148Z,101402.70
2023-05-03T22:28:40.799Z,101409.96
2023-05-03T22:31:13.675Z,101413.77
2023-05-03T22:33:45.201Z,101435.59
2023-05-03T22:36:16.187Z,101450.72
2023-05-03T22:38:47.128Z,101450.45
2023-05-03T22:41:17.854Z,101442.23
2023-05-03T22:43:48.580Z,101438.29
2023-05-03T22:46:19.627Z,101436.09
2023-05-03T22:48:52.814Z,101429.11
2023-05-03T22:51:23.666Z,101415.46
2023-05-03T22:53:54.394Z,101402.34
2023-05-03T22:56:25.151Z,101395.20
2023-05-03T22:58:55.838Z,101388.23
2023-05-03T23:01:28.004Z,101376.98
2023-05-03T23:03:59.618Z,101381.16
2023-05-03T23:06:30.378Z,101382.10
2023-05-03T23:09:01.458Z,101379.14
2023-05-03T23:11:32.298Z,101376.45
2023-05-03T23:14:03.041Z,101369.56
2023-05-03T23:16:33.977Z,101364.54
2023-05-03T23:19:04.812Z,101351.15
2023-05-03T23:21:36.909Z,101341.48
2023-05-03T23:24:08.111Z,101325.75
2023-05-03T23:26:41.378Z,101310.72
2023-05-03T23:29:16.089Z,101305.15
2023-05-03T23:31:47.304Z,101308.79
2023-05-03T23:34:18.740Z,101301.30
2023-05-03T23:36:49.560Z,101305.69
2023-05-03T23:39:20.241Z,101294.65
2023-05-03T23:41:51.048Z,101303.48
2023-05-03T23:44:22.404Z,101304.02
2023-05-03T23:46:55.074Z,101311.87
2023-05-03T23:49:25.893Z,101321.27
2023-05-03T23:51:56.763Z,101321.61
2023-05-03T23:54:27.593Z,101326.31
2023-05-03T23:56:58.547Z,101330.08
2023-05-03T23:59:29.433Z,101322.46
